LIMC/MXP METAR and TAF weather

Enter ICAO airport designator
Station Type Date Time Source
LIMC METAR 2019/07/18 10:20 UTC NOAA

LIMC 181020Z VRB04KT CAVOK 27/14 Q1013 NOSIG


Station Type Date Time Source
LIMC Decoded METAR 2019/07/18 10:20 UTC NOAA

Milano / Malpensa, Italy (LIMC) 45-37N 008-44E 211M
Jul 18, 2019 - 06:20 AM EDT / 2019.07.18 1020 UTC
Wind: Variable at 5 MPH (4 KT):0
Visibility: greater than 7 mile(s):0
Temperature: 80 F (27 C)
Dew Point: 57 F (14 C)
Relative Humidity: 44%
Pressure (altimeter): 29.91 in. Hg (1013 hPa)
ob: LIMC 181020Z VRB04KT CAVOK 27/14 Q1013 NOSIG
cycle: 10

Station Type Date Time Source
LIMC TAF 2019/07/18 06:26 UTC NOAA

TAF LIMC 180500Z 1806/1912 VRB05KT 9999 SCT070 PROB40
TEMPO 1821/1904 TSRA

Example: see airport list